Terminal Aerodrome Forecast
Issued by NWS Central Illinois

Home | Current Version | Previous Version | Text Only | Print | Product List | Glossary On
Versions: 1 2 3 4 5 6 7 8 9 10 11 12 13 14 15 16 17 18 19 20
000
FTUS43 KILX 181730
TAFPIA
TAF
KPIA 181730Z 1818/1918 22012G20KT P6SM FEW250
     FM190100 21010KT P6SM FEW250 WS018/25045KT
     FM191500 21012KT P6SM SKC=

USA.gov is the U.S. government's official web portal to all federal, state and local government web resources and services.